sensor_id;sensor_type;location;lat;lon;timestamp;P1;durP1;ratioP1;P2;durP2;ratioP2
23310;SDS011;11828;51.508;18.118;2022-10-31T00:01:35;39.75;;;20.60;;
23310;SDS011;11828;51.508;18.118;2022-10-31T00:04:04;38.58;;;20.27;;
23310;SDS011;11828;51.508;18.118;2022-10-31T00:06:30;43.33;;;21.40;;
23310;SDS011;11828;51.508;18.118;2022-10-31T00:08:58;45.78;;;21.90;;
23310;SDS011;11828;51.508;18.118;2022-10-31T00:11:26;34.13;;;20.52;;
23310;SDS011;11828;51.508;18.118;2022-10-31T00:13:53;42.03;;;20.35;;
23310;SDS011;11828;51.508;18.118;2022-10-31T00:16:20;35.70;;;19.13;;
23310;SDS011;11828;51.508;18.118;2022-10-31T00:18:49;43.42;;;21.13;;
23310;SDS011;11828;51.508;18.118;2022-10-31T00:21:20;38.55;;;20.88;;
23310;SDS011;11828;51.508;18.118;2022-10-31T00:23:47;44.15;;;20.33;;
23310;SDS011;11828;51.508;18.118;2022-10-31T00:26:13;35.45;;;21.15;;
23310;SDS011;11828;51.508;18.118;2022-10-31T00:28:40;47.70;;;21.58;;
23310;SDS011;11828;51.508;18.118;2022-10-31T00:31:07;36.47;;;19.70;;
23310;SDS011;11828;51.508;18.118;2022-10-31T00:33:35;37.50;;;21.85;;
23310;SDS011;11828;51.508;18.118;2022-10-31T00:36:04;40.17;;;21.17;;
23310;SDS011;11828;51.508;18.118;2022-10-31T00:38:31;39.42;;;21.20;;
23310;SDS011;11828;51.508;18.118;2022-10-31T00:40:58;42.63;;;21.52;;
23310;SDS011;11828;51.508;18.118;2022-10-31T00:43:24;43.63;;;20.48;;
23310;SDS011;11828;51.508;18.118;2022-10-31T00:45:50;40.35;;;21.25;;
23310;SDS011;11828;51.508;18.118;2022-10-31T00:48:17;40.10;;;22.58;;
23310;SDS011;11828;51.508;18.118;2022-10-31T00:50:43;39.33;;;20.80;;
23310;SDS011;11828;51.508;18.118;2022-10-31T00:53:09;38.97;;;20.10;;
23310;SDS011;11828;51.508;18.118;2022-10-31T00:55:35;37.90;;;20.17;;
23310;SDS011;11828;51.508;18.118;2022-10-31T00:58:01;35.72;;;18.80;;
23310;SDS011;11828;51.508;18.118;2022-10-31T01:00:27;36.47;;;19.42;;
23310;SDS011;11828;51.508;18.118;2022-10-31T01:02:53;37.05;;;19.95;;
23310;SDS011;11828;51.508;18.118;2022-10-31T01:05:19;34.90;;;19.13;;
23310;SDS011;11828;51.508;18.118;2022-10-31T01:07:45;35.20;;;20.85;;
23310;SDS011;11828;51.508;18.118;2022-10-31T01:10:11;35.47;;;20.00;;
23310;SDS011;11828;51.508;18.118;2022-10-31T01:12:45;39.70;;;20.23;;
23310;SDS011;11828;51.508;18.118;2022-10-31T01:15:15;38.05;;;21.60;;
23310;SDS011;11828;51.508;18.118;2022-10-31T01:17:44;40.65;;;22.73;;
23310;SDS011;11828;51.508;18.118;2022-10-31T01:20:11;35.78;;;20.10;;
23310;SDS011;11828;51.508;18.118;2022-10-31T01:22:39;37.20;;;21.55;;
23310;SDS011;11828;51.508;18.118;2022-10-31T01:25:06;35.03;;;21.15;;
23310;SDS011;11828;51.508;18.118;2022-10-31T01:27:33;33.72;;;18.83;;
23310;SDS011;11828;51.508;18.118;2022-10-31T01:29:59;31.80;;;18.60;;
23310;SDS011;11828;51.508;18.118;2022-10-31T01:32:26;37.10;;;22.92;;
23310;SDS011;11828;51.508;18.118;2022-10-31T01:34:55;35.80;;;19.88;;
23310;SDS011;11828;51.508;18.118;2022-10-31T01:37:22;38.25;;;23.77;;
23310;SDS011;11828;51.508;18.118;2022-10-31T01:39:48;37.50;;;23.25;;
23310;SDS011;11828;51.508;18.118;2022-10-31T01:42:18;33.10;;;18.40;;
23310;SDS011;11828;51.508;18.118;2022-10-31T01:44:50;43.90;;;29.17;;
23310;SDS011;11828;51.508;18.118;2022-10-31T01:47:40;32.90;;;19.10;;
23310;SDS011;11828;51.508;18.118;2022-10-31T01:50:13;36.67;;;19.52;;
23310;SDS011;11828;51.508;18.118;2022-10-31T01:53:02;37.13;;;21.52;;
23310;SDS011;11828;51.508;18.118;2022-10-31T01:55:34;40.28;;;20.08;;
23310;SDS011;11828;51.508;18.118;2022-10-31T01:58:07;34.72;;;19.10;;
23310;SDS011;11828;51.508;18.118;2022-10-31T02:00:40;39.65;;;25.42;;
23310;SDS011;11828;51.508;18.118;2022-10-31T02:03:10;32.05;;;18.58;;
23310;SDS011;11828;51.508;18.118;2022-10-31T02:05:36;35.50;;;18.55;;
23310;SDS011;11828;51.508;18.118;2022-10-31T02:10:42;33.67;;;19.90;;
23310;SDS011;11828;51.508;18.118;2022-10-31T02:13:08;34.42;;;17.55;;
23310;SDS011;11828;51.508;18.118;2022-10-31T02:15:35;41.38;;;25.35;;
23310;SDS011;11828;51.508;18.118;2022-10-31T02:18:04;35.10;;;18.75;;
23310;SDS011;11828;51.508;18.118;2022-10-31T02:32:12;35.60;;;21.45;;
23310;SDS011;11828;51.508;18.118;2022-10-31T02:35:17;37.22;;;21.10;;
23310;SDS011;11828;51.508;18.118;2022-10-31T02:41:06;29.08;;;16.92;;
23310;SDS011;11828;51.508;18.118;2022-10-31T02:44:15;31.27;;;17.85;;
23310;SDS011;11828;51.508;18.118;2022-10-31T02:47:24;32.40;;;18.25;;
23310;SDS011;11828;51.508;18.118;2022-10-31T02:52:36;28.05;;;15.38;;
23310;SDS011;11828;51.508;18.118;2022-10-31T02:55:12;29.35;;;18.52;;
23310;SDS011;11828;51.508;18.118;2022-10-31T02:57:48;32.60;;;18.90;;
23310;SDS011;11828;51.508;18.118;2022-10-31T03:00:15;38.67;;;16.75;;
23310;SDS011;11828;51.508;18.118;2022-10-31T03:05:27;31.33;;;17.15;;
23310;SDS011;11828;51.508;18.118;2022-10-31T03:08:33;37.40;;;19.77;;
23310;SDS011;11828;51.508;18.118;2022-10-31T03:11:01;34.97;;;17.10;;
23310;SDS011;11828;51.508;18.118;2022-10-31T03:13:36;28.27;;;16.55;;
23310;SDS011;11828;51.508;18.118;2022-10-31T03:21:51;30.25;;;17.95;;
23310;SDS011;11828;51.508;18.118;2022-10-31T03:24:24;39.17;;;22.95;;
23310;SDS011;11828;51.508;18.118;2022-10-31T03:26:56;45.45;;;34.80;;
23310;SDS011;11828;51.508;18.118;2022-10-31T03:29:25;34.03;;;19.58;;
23310;SDS011;11828;51.508;18.118;2022-10-31T03:32:16;43.38;;;23.33;;
23310;SDS011;11828;51.508;18.118;2022-10-31T03:35:10;36.45;;;23.35;;
23310;SDS011;11828;51.508;18.118;2022-10-31T03:37:38;33.13;;;21.40;;
23310;SDS011;11828;51.508;18.118;2022-10-31T03:40:06;37.08;;;17.65;;
23310;SDS011;11828;51.508;18.118;2022-10-31T03:42:37;34.20;;;18.08;;
23310;SDS011;11828;51.508;18.118;2022-10-31T03:47:37;33.08;;;17.95;;
23310;SDS011;11828;51.508;18.118;2022-10-31T03:50:06;38.95;;;24.80;;
23310;SDS011;11828;51.508;18.118;2022-10-31T03:52:35;30.50;;;17.02;;
23310;SDS011;11828;51.508;18.118;2022-10-31T03:55:18;34.00;;;17.23;;
23310;SDS011;11828;51.508;18.118;2022-10-31T03:58:11;35.35;;;16.42;;
23310;SDS011;11828;51.508;18.118;2022-10-31T04:00:46;33.47;;;17.33;;
23310;SDS011;11828;51.508;18.118;2022-10-31T04:03:21;31.00;;;15.73;;
23310;SDS011;11828;51.508;18.118;2022-10-31T04:05:52;36.05;;;18.25;;
23310;SDS011;11828;51.508;18.118;2022-10-31T04:08:22;30.10;;;18.08;;
23310;SDS011;11828;51.508;18.118;2022-10-31T04:10:52;33.92;;;19.25;;
23310;SDS011;11828;51.508;18.118;2022-10-31T04:13:26;33.10;;;18.30;;
23310;SDS011;11828;51.508;18.118;2022-10-31T04:15:55;34.13;;;17.38;;
23310;SDS011;11828;51.508;18.118;2022-10-31T04:18:22;33.58;;;19.92;;
23310;SDS011;11828;51.508;18.118;2022-10-31T04:20:49;36.42;;;19.90;;
23310;SDS011;11828;51.508;18.118;2022-10-31T04:23:28;39.80;;;19.27;;
23310;SDS011;11828;51.508;18.118;2022-10-31T04:25:54;36.28;;;17.65;;
23310;SDS011;11828;51.508;18.118;2022-10-31T04:28:20;30.67;;;17.88;;
23310;SDS011;11828;51.508;18.118;2022-10-31T04:30:46;31.50;;;19.33;;
23310;SDS011;11828;51.508;18.118;2022-10-31T04:33:13;29.95;;;17.83;;
23310;SDS011;11828;51.508;18.118;2022-10-31T04:35:39;33.72;;;19.00;;
23310;SDS011;11828;51.508;18.118;2022-10-31T04:38:05;39.70;;;20.80;;
23310;SDS011;11828;51.508;18.118;2022-10-31T04:40:32;36.65;;;24.90;;
23310;SDS011;11828;51.508;18.118;2022-10-31T04:42:58;56.85;;;40.67;;
23310;SDS011;11828;51.508;18.118;2022-10-31T04:45:24;40.97;;;27.55;;
23310;SDS011;11828;51.508;18.118;2022-10-31T04:47:50;49.83;;;40.72;;
23310;SDS011;11828;51.508;18.118;2022-10-31T04:50:16;40.08;;;23.00;;
23310;SDS011;11828;51.508;18.118;2022-10-31T04:52:42;53.05;;;47.38;;
23310;SDS011;11828;51.508;18.118;2022-10-31T04:55:10;48.15;;;39.75;;
23310;SDS011;11828;51.508;18.118;2022-10-31T04:57:45;48.60;;;35.88;;
23310;SDS011;11828;51.508;18.118;2022-10-31T05:00:17;65.97;;;51.72;;
23310;SDS011;11828;51.508;18.118;2022-10-31T05:02:45;60.22;;;46.67;;
23310;SDS011;11828;51.508;18.118;2022-10-31T05:05:23;66.72;;;30.98;;
23310;SDS011;11828;51.508;18.118;2022-10-31T05:07:52;68.97;;;55.38;;
23310;SDS011;11828;51.508;18.118;2022-10-31T05:10:20;70.35;;;41.63;;
23310;SDS011;11828;51.508;18.118;2022-10-31T05:12:50;82.05;;;62.08;;
23310;SDS011;11828;51.508;18.118;2022-10-31T05:15:20;78.65;;;30.65;;
23310;SDS011;11828;51.508;18.118;2022-10-31T05:17:47;75.50;;;33.72;;
23310;SDS011;11828;51.508;18.118;2022-10-31T05:20:16;62.97;;;31.90;;
23310;SDS011;11828;51.508;18.118;2022-10-31T05:22:53;65.95;;;33.35;;
23310;SDS011;11828;51.508;18.118;2022-10-31T05:25:21;74.07;;;44.85;;
23310;SDS011;11828;51.508;18.118;2022-10-31T05:27:50;54.90;;;26.73;;
23310;SDS011;11828;51.508;18.118;2022-10-31T05:30:18;44.95;;;25.23;;
23310;SDS011;11828;51.508;18.118;2022-10-31T05:32:55;44.72;;;30.00;;
23310;SDS011;11828;51.508;18.118;2022-10-31T05:35:23;50.10;;;23.45;;
23310;SDS011;11828;51.508;18.118;2022-10-31T05:37:57;54.10;;;24.92;;
23310;SDS011;11828;51.508;18.118;2022-10-31T05:40:24;46.05;;;19.90;;
23310;SDS011;11828;51.508;18.118;2022-10-31T05:42:52;49.70;;;27.02;;
23310;SDS011;11828;51.508;18.118;2022-10-31T05:45:20;43.88;;;22.25;;
23310;SDS011;11828;51.508;18.118;2022-10-31T05:47:57;36.92;;;20.63;;
23310;SDS011;11828;51.508;18.118;2022-10-31T05:50:25;60.60;;;38.72;;
23310;SDS011;11828;51.508;18.118;2022-10-31T05:52:57;78.03;;;57.63;;
23310;SDS011;11828;51.508;18.118;2022-10-31T05:55:29;44.80;;;27.48;;
23310;SDS011;11828;51.508;18.118;2022-10-31T05:57:56;36.80;;;21.33;;
23310;SDS011;11828;51.508;18.118;2022-10-31T06:00:23;60.38;;;27.63;;
23310;SDS011;11828;51.508;18.118;2022-10-31T06:02:58;55.28;;;28.00;;
23310;SDS011;11828;51.508;18.118;2022-10-31T06:05:28;41.83;;;22.67;;
23310;SDS011;11828;51.508;18.118;2022-10-31T06:07:54;45.53;;;24.60;;
23310;SDS011;11828;51.508;18.118;2022-10-31T06:10:21;42.63;;;19.88;;
23310;SDS011;11828;51.508;18.118;2022-10-31T06:12:48;38.55;;;21.00;;
23310;SDS011;11828;51.508;18.118;2022-10-31T06:15:15;32.53;;;17.73;;
23310;SDS011;11828;51.508;18.118;2022-10-31T06:17:42;43.20;;;23.20;;
23310;SDS011;11828;51.508;18.118;2022-10-31T06:20:08;53.35;;;27.15;;
23310;SDS011;11828;51.508;18.118;2022-10-31T06:22:35;56.03;;;29.50;;
23310;SDS011;11828;51.508;18.118;2022-10-31T06:25:01;64.53;;;35.05;;
23310;SDS011;11828;51.508;18.118;2022-10-31T06:27:28;70.90;;;39.58;;
23310;SDS011;11828;51.508;18.118;2022-10-31T06:29:54;65.18;;;37.53;;
23310;SDS011;11828;51.508;18.118;2022-10-31T06:32:20;58.90;;;35.35;;
23310;SDS011;11828;51.508;18.118;2022-10-31T06:34:46;58.90;;;32.08;;
23310;SDS011;11828;51.508;18.118;2022-10-31T06:37:15;58.90;;;33.17;;
23310;SDS011;11828;51.508;18.118;2022-10-31T06:39:41;49.75;;;27.83;;
23310;SDS011;11828;51.508;18.118;2022-10-31T06:42:07;61.40;;;34.15;;
23310;SDS011;11828;51.508;18.118;2022-10-31T06:44:33;48.92;;;30.35;;
23310;SDS011;11828;51.508;18.118;2022-10-31T06:46:59;46.35;;;24.77;;
23310;SDS011;11828;51.508;18.118;2022-10-31T06:49:26;47.67;;;25.95;;
23310;SDS011;11828;51.508;18.118;2022-10-31T06:51:52;44.55;;;22.95;;
23310;SDS011;11828;51.508;18.118;2022-10-31T06:54:19;52.58;;;25.23;;
23310;SDS011;11828;51.508;18.118;2022-10-31T06:56:45;40.67;;;23.52;;
23310;SDS011;11828;51.508;18.118;2022-10-31T06:59:15;40.33;;;20.98;;
23310;SDS011;11828;51.508;18.118;2022-10-31T07:01:41;37.92;;;21.90;;
23310;SDS011;11828;51.508;18.118;2022-10-31T07:04:10;43.38;;;26.80;;
23310;SDS011;11828;51.508;18.118;2022-10-31T07:06:37;49.92;;;29.33;;
23310;SDS011;11828;51.508;18.118;2022-10-31T07:09:03;80.50;;;47.53;;
23310;SDS011;11828;51.508;18.118;2022-10-31T07:11:29;68.60;;;35.65;;
23310;SDS011;11828;51.508;18.118;2022-10-31T07:13:55;57.22;;;32.40;;
23310;SDS011;11828;51.508;18.118;2022-10-31T07:16:22;48.58;;;30.17;;
23310;SDS011;11828;51.508;18.118;2022-10-31T07:18:48;55.10;;;25.08;;
23310;SDS011;11828;51.508;18.118;2022-10-31T07:21:15;55.97;;;29.52;;
23310;SDS011;11828;51.508;18.118;2022-10-31T07:23:41;54.42;;;26.60;;
23310;SDS011;11828;51.508;18.118;2022-10-31T07:26:07;46.15;;;20.95;;
23310;SDS011;11828;51.508;18.118;2022-10-31T07:28:34;38.15;;;19.02;;
23310;SDS011;11828;51.508;18.118;2022-10-31T07:31:00;48.72;;;25.95;;
23310;SDS011;11828;51.508;18.118;2022-10-31T07:33:26;48.25;;;24.48;;
23310;SDS011;11828;51.508;18.118;2022-10-31T07:35:53;39.88;;;20.13;;
23310;SDS011;11828;51.508;18.118;2022-10-31T07:38:19;48.22;;;21.27;;
23310;SDS011;11828;51.508;18.118;2022-10-31T07:40:48;47.50;;;21.88;;
23310;SDS011;11828;51.508;18.118;2022-10-31T07:43:19;43.20;;;20.42;;
23310;SDS011;11828;51.508;18.118;2022-10-31T07:45:52;46.67;;;22.70;;
23310;SDS011;11828;51.508;18.118;2022-10-31T07:48:19;40.17;;;20.98;;
23310;SDS011;11828;51.508;18.118;2022-10-31T07:50:45;43.78;;;19.45;;
23310;SDS011;11828;51.508;18.118;2022-10-31T07:53:12;252.98;;;112.90;;
23310;SDS011;11828;51.508;18.118;2022-10-31T07:55:39;238.18;;;93.47;;
23310;SDS011;11828;51.508;18.118;2022-10-31T07:58:07;226.85;;;88.97;;
23310;SDS011;11828;51.508;18.118;2022-10-31T08:00:36;228.98;;;88.80;;
23310;SDS011;11828;51.508;18.118;2022-10-31T08:03:04;229.93;;;90.30;;
23310;SDS011;11828;51.508;18.118;2022-10-31T08:05:35;229.38;;;89.55;;
23310;SDS011;11828;51.508;18.118;2022-10-31T08:08:03;234.93;;;86.82;;
23310;SDS011;11828;51.508;18.118;2022-10-31T08:10:30;227.55;;;86.80;;
23310;SDS011;11828;51.508;18.118;2022-10-31T08:13:03;231.13;;;87.97;;
23310;SDS011;11828;51.508;18.118;2022-10-31T08:15:35;244.18;;;90.40;;
23310;SDS011;11828;51.508;18.118;2022-10-31T08:18:03;231.50;;;87.97;;
23310;SDS011;11828;51.508;18.118;2022-10-31T08:20:31;227.02;;;87.72;;
23310;SDS011;11828;51.508;18.118;2022-10-31T08:25:29;230.80;;;86.63;;
23310;SDS011;11828;51.508;18.118;2022-10-31T08:27:56;232.27;;;87.97;;
23310;SDS011;11828;51.508;18.118;2022-10-31T08:30:25;232.48;;;87.63;;
23310;SDS011;11828;51.508;18.118;2022-10-31T08:33:00;238.20;;;86.63;;
23310;SDS011;11828;51.508;18.118;2022-10-31T08:35:32;231.75;;;93.18;;
23310;SDS011;11828;51.508;18.118;2022-10-31T08:37:58;236.68;;;93.25;;
23310;SDS011;11828;51.508;18.118;2022-10-31T08:40:26;237.30;;;92.97;;
23310;SDS011;11828;51.508;18.118;2022-10-31T08:45:23;230.10;;;90.65;;
23310;SDS011;11828;51.508;18.118;2022-10-31T08:47:49;226.02;;;89.18;;
23310;SDS011;11828;51.508;18.118;2022-10-31T08:50:16;226.43;;;89.05;;
23310;SDS011;11828;51.508;18.118;2022-10-31T08:52:42;222.60;;;86.60;;
23310;SDS011;11828;51.508;18.118;2022-10-31T08:55:09;232.73;;;88.53;;
23310;SDS011;11828;51.508;18.118;2022-10-31T08:57:35;226.73;;;86.38;;
23310;SDS011;11828;51.508;18.118;2022-10-31T09:00:02;226.38;;;87.85;;
23310;SDS011;11828;51.508;18.118;2022-10-31T09:02:30;226.40;;;88.18;;
23310;SDS011;11828;51.508;18.118;2022-10-31T09:04:56;224.38;;;84.40;;
23310;SDS011;11828;51.508;18.118;2022-10-31T09:07:23;217.77;;;83.32;;
23310;SDS011;11828;51.508;18.118;2022-10-31T09:09:49;224.13;;;84.97;;
23310;SDS011;11828;51.508;18.118;2022-10-31T09:12:15;249.07;;;88.57;;
23310;SDS011;11828;51.508;18.118;2022-10-31T09:14:42;225.45;;;85.05;;
23310;SDS011;11828;51.508;18.118;2022-10-31T09:17:08;239.45;;;87.90;;
23310;SDS011;11828;51.508;18.118;2022-10-31T09:19:35;240.38;;;86.38;;
23310;SDS011;11828;51.508;18.118;2022-10-31T09:22:01;224.90;;;83.13;;
23310;SDS011;11828;51.508;18.118;2022-10-31T09:24:28;235.57;;;83.75;;
23310;SDS011;11828;51.508;18.118;2022-10-31T09:26:54;224.98;;;81.40;;
23310;SDS011;11828;51.508;18.118;2022-10-31T09:29:21;221.18;;;81.15;;
23310;SDS011;11828;51.508;18.118;2022-10-31T09:31:47;226.20;;;83.25;;
23310;SDS011;11828;51.508;18.118;2022-10-31T09:34:14;230.48;;;87.15;;
23310;SDS011;11828;51.508;18.118;2022-10-31T09:36:40;213.57;;;80.82;;
23310;SDS011;11828;51.508;18.118;2022-10-31T09:39:08;226.43;;;85.85;;
23310;SDS011;11828;51.508;18.118;2022-10-31T09:41:43;228.25;;;86.25;;
23310;SDS011;11828;51.508;18.118;2022-10-31T09:47:37;237.63;;;88.40;;
23310;SDS011;11828;51.508;18.118;2022-10-31T09:50:19;225.18;;;82.78;;
23310;SDS011;11828;51.508;18.118;2022-10-31T09:53:34;231.10;;;86.78;;
23310;SDS011;11828;51.508;18.118;2022-10-31T09:55:46;220.82;;;86.75;;
23310;SDS011;11828;51.508;18.118;2022-10-31T09:58:15;226.93;;;84.53;;
23310;SDS011;11828;51.508;18.118;2022-10-31T10:00:48;215.35;;;82.10;;
23310;SDS011;11828;51.508;18.118;2022-10-31T10:03:28;219.10;;;84.97;;
23310;SDS011;11828;51.508;18.118;2022-10-31T10:08:44;238.98;;;90.82;;
23310;SDS011;11828;51.508;18.118;2022-10-31T10:11:32;221.65;;;84.20;;
23310;SDS011;11828;51.508;18.118;2022-10-31T10:14:35;219.32;;;82.95;;
23310;SDS011;11828;51.508;18.118;2022-10-31T10:23:34;211.85;;;79.03;;
23310;SDS011;11828;51.508;18.118;2022-10-31T10:26:55;221.75;;;82.38;;
23310;SDS011;11828;51.508;18.118;2022-10-31T10:30:07;219.85;;;81.75;;
23310;SDS011;11828;51.508;18.118;2022-10-31T10:32:45;224.00;;;88.13;;
23310;SDS011;11828;51.508;18.118;2022-10-31T10:40:55;223.15;;;85.07;;
23310;SDS011;11828;51.508;18.118;2022-10-31T10:43:32;221.10;;;83.65;;
23310;SDS011;11828;51.508;18.118;2022-10-31T10:48:58;213.32;;;77.47;;
23310;SDS011;11828;51.508;18.118;2022-10-31T10:51:47;216.40;;;80.70;;
23310;SDS011;11828;51.508;18.118;2022-10-31T11:00:02;215.80;;;81.80;;
23310;SDS011;11828;51.508;18.118;2022-10-31T11:02:42;270.25;;;106.38;;
23310;SDS011;11828;51.508;18.118;2022-10-31T11:05:13;298.38;;;114.93;;
23310;SDS011;11828;51.508;18.118;2022-10-31T11:07:50;273.67;;;98.97;;
23310;SDS011;11828;51.508;18.118;2022-10-31T11:10:16;31.58;;;11.93;;
23310;SDS011;11828;51.508;18.118;2022-10-31T11:18:32;262.08;;;100.03;;
23310;SDS011;11828;51.508;18.118;2022-10-31T11:21:02;205.55;;;110.43;;
23310;SDS011;11828;51.508;18.118;2022-10-31T11:23:31;240.07;;;94.90;;
23310;SDS011;11828;51.508;18.118;2022-10-31T11:28:27;272.33;;;101.93;;
23310;SDS011;11828;51.508;18.118;2022-10-31T11:31:00;241.65;;;96.63;;
23310;SDS011;11828;51.508;18.118;2022-10-31T11:33:37;259.13;;;99.65;;
23310;SDS011;11828;51.508;18.118;2022-10-31T11:36:23;249.10;;;97.10;;
23310;SDS011;11828;51.508;18.118;2022-10-31T11:38:59;252.52;;;97.53;;
23310;SDS011;11828;51.508;18.118;2022-10-31T11:41:34;248.98;;;98.60;;
23310;SDS011;11828;51.508;18.118;2022-10-31T11:44:10;253.93;;;100.57;;
23310;SDS011;11828;51.508;18.118;2022-10-31T11:46:47;261.80;;;99.05;;
23310;SDS011;11828;51.508;18.118;2022-10-31T11:49:31;245.43;;;98.97;;
23310;SDS011;11828;51.508;18.118;2022-10-31T11:52:05;253.57;;;98.00;;
23310;SDS011;11828;51.508;18.118;2022-10-31T11:55:00;254.10;;;99.00;;
23310;SDS011;11828;51.508;18.118;2022-10-31T11:57:56;239.20;;;95.63;;
23310;SDS011;11828;51.508;18.118;2022-10-31T12:00:23;252.32;;;98.57;;
23310;SDS011;11828;51.508;18.118;2022-10-31T12:03:10;248.15;;;97.28;;
23310;SDS011;11828;51.508;18.118;2022-10-31T12:05:51;210.88;;;96.43;;
23310;SDS011;11828;51.508;18.118;2022-10-31T12:08:34;193.57;;;94.28;;
23310;SDS011;11828;51.508;18.118;2022-10-31T12:16:48;219.10;;;99.32;;
23310;SDS011;11828;51.508;18.118;2022-10-31T12:19:28;172.07;;;93.50;;
23310;SDS011;11828;51.508;18.118;2022-10-31T12:22:01;200.40;;;96.63;;
23310;SDS011;11828;51.508;18.118;2022-10-31T12:33:42;233.40;;;107.05;;
23310;SDS011;11828;51.508;18.118;2022-10-31T12:36:46;186.85;;;100.45;;
23310;SDS011;11828;51.508;18.118;2022-10-31T12:42:07;187.48;;;101.45;;
23310;SDS011;11828;51.508;18.118;2022-10-31T12:44:49;195.93;;;109.57;;
23310;SDS011;11828;51.508;18.118;2022-10-31T12:56:45;201.57;;;96.05;;
23310;SDS011;11828;51.508;18.118;2022-10-31T13:00:07;172.20;;;94.18;;
23310;SDS011;11828;51.508;18.118;2022-10-31T13:08:04;201.70;;;97.10;;
23310;SDS011;11828;51.508;18.118;2022-10-31T13:11:02;202.85;;;98.65;;
23310;SDS011;11828;51.508;18.118;2022-10-31T13:13:41;242.70;;;114.75;;
23310;SDS011;11828;51.508;18.118;2022-10-31T13:16:16;209.80;;;101.57;;
23310;SDS011;11828;51.508;18.118;2022-10-31T13:24:11;212.25;;;97.55;;
23310;SDS011;11828;51.508;18.118;2022-10-31T13:26:50;214.77;;;97.70;;
23310;SDS011;11828;51.508;18.118;2022-10-31T13:29:22;216.82;;;98.20;;
23310;SDS011;11828;51.508;18.118;2022-10-31T13:32:04;221.77;;;98.63;;
23310;SDS011;11828;51.508;18.118;2022-10-31T13:34:42;223.15;;;94.78;;
23310;SDS011;11828;51.508;18.118;2022-10-31T13:37:36;238.30;;;98.72;;
23310;SDS011;11828;51.508;18.118;2022-10-31T13:40:11;226.95;;;98.63;;
23310;SDS011;11828;51.508;18.118;2022-10-31T13:45:49;241.80;;;100.65;;
23310;SDS011;11828;51.508;18.118;2022-10-31T13:50:58;259.85;;;130.95;;
23310;SDS011;11828;51.508;18.118;2022-10-31T13:53:36;231.68;;;98.03;;
23310;SDS011;11828;51.508;18.118;2022-10-31T13:56:28;225.77;;;95.97;;
23310;SDS011;11828;51.508;18.118;2022-10-31T14:01:35;229.73;;;95.70;;
23310;SDS011;11828;51.508;18.118;2022-10-31T14:04:21;224.20;;;104.63;;
23310;SDS011;11828;51.508;18.118;2022-10-31T14:07:12;242.48;;;97.40;;
23310;SDS011;11828;51.508;18.118;2022-10-31T14:12:46;261.20;;;119.88;;
23310;SDS011;11828;51.508;18.118;2022-10-31T14:20:23;251.77;;;99.85;;
23310;SDS011;11828;51.508;18.118;2022-10-31T14:26:06;273.08;;;123.70;;
23310;SDS011;11828;51.508;18.118;2022-10-31T14:29:20;291.02;;;125.90;;
23310;SDS011;11828;51.508;18.118;2022-10-31T14:34:50;272.73;;;108.85;;
23310;SDS011;11828;51.508;18.118;2022-10-31T14:43:01;271.50;;;108.30;;
23310;SDS011;11828;51.508;18.118;2022-10-31T14:45:49;266.95;;;110.32;;
23310;SDS011;11828;51.508;18.118;2022-10-31T14:48:39;268.48;;;110.95;;
23310;SDS011;11828;51.508;18.118;2022-10-31T14:51:40;278.00;;;113.95;;
23310;SDS011;11828;51.508;18.118;2022-10-31T14:54:11;282.40;;;115.40;;
23310;SDS011;11828;51.508;18.118;2022-10-31T14:57:02;300.45;;;122.82;;
23310;SDS011;11828;51.508;18.118;2022-10-31T14:59:37;289.15;;;121.38;;
23310;SDS011;11828;51.508;18.118;2022-10-31T15:02:15;296.33;;;118.75;;
23310;SDS011;11828;51.508;18.118;2022-10-31T15:04:51;291.90;;;117.38;;
23310;SDS011;11828;51.508;18.118;2022-10-31T15:07:22;271.17;;;113.93;;
23310;SDS011;11828;51.508;18.118;2022-10-31T15:12:33;300.83;;;123.32;;
23310;SDS011;11828;51.508;18.118;2022-10-31T15:17:59;275.38;;;121.22;;
23310;SDS011;11828;51.508;18.118;2022-10-31T15:20:31;267.95;;;113.25;;
23310;SDS011;11828;51.508;18.118;2022-10-31T15:23:09;270.92;;;115.55;;
23310;SDS011;11828;51.508;18.118;2022-10-31T15:25:45;263.75;;;111.97;;
23310;SDS011;11828;51.508;18.118;2022-10-31T15:28:16;270.65;;;116.70;;
23310;SDS011;11828;51.508;18.118;2022-10-31T15:30:49;266.48;;;119.15;;
23310;SDS011;11828;51.508;18.118;2022-10-31T15:33:28;279.73;;;115.68;;
23310;SDS011;11828;51.508;18.118;2022-10-31T15:36:00;282.77;;;128.13;;
23310;SDS011;11828;51.508;18.118;2022-10-31T15:38:28;298.13;;;122.13;;
23310;SDS011;11828;51.508;18.118;2022-10-31T15:40:59;285.30;;;124.05;;
23310;SDS011;11828;51.508;18.118;2022-10-31T15:43:31;287.50;;;125.15;;
23310;SDS011;11828;51.508;18.118;2022-10-31T15:46:02;302.17;;;125.65;;
23310;SDS011;11828;51.508;18.118;2022-10-31T15:48:32;301.75;;;124.43;;
23310;SDS011;11828;51.508;18.118;2022-10-31T15:51:00;317.30;;;124.22;;
23310;SDS011;11828;51.508;18.118;2022-10-31T15:53:34;304.05;;;122.07;;
23310;SDS011;11828;51.508;18.118;2022-10-31T15:56:14;281.48;;;117.35;;
23310;SDS011;11828;51.508;18.118;2022-10-31T15:58:48;279.65;;;115.13;;
23310;SDS011;11828;51.508;18.118;2022-10-31T16:03:59;291.35;;;125.57;;
23310;SDS011;11828;51.508;18.118;2022-10-31T16:06:30;303.63;;;132.88;;
23310;SDS011;11828;51.508;18.118;2022-10-31T16:08:58;298.15;;;127.72;;
23310;SDS011;11828;51.508;18.118;2022-10-31T16:11:35;296.90;;;122.70;;
23310;SDS011;11828;51.508;18.118;2022-10-31T16:14:13;310.08;;;127.20;;
23310;SDS011;11828;51.508;18.118;2022-10-31T16:16:47;313.23;;;129.77;;
23310;SDS011;11828;51.508;18.118;2022-10-31T16:19:19;333.13;;;140.00;;
23310;SDS011;11828;51.508;18.118;2022-10-31T16:21:51;305.92;;;130.43;;
23310;SDS011;11828;51.508;18.118;2022-10-31T16:24:31;305.17;;;131.13;;
23310;SDS011;11828;51.508;18.118;2022-10-31T16:27:07;305.55;;;127.45;;
23310;SDS011;11828;51.508;18.118;2022-10-31T16:29:45;329.63;;;158.30;;
23310;SDS011;11828;51.508;18.118;2022-10-31T16:33:19;323.45;;;142.32;;
23310;SDS011;11828;51.508;18.118;2022-10-31T16:35:26;317.65;;;141.23;;
23310;SDS011;11828;51.508;18.118;2022-10-31T16:38:00;318.17;;;137.05;;
23310;SDS011;11828;51.508;18.118;2022-10-31T16:40:28;326.52;;;148.77;;
23310;SDS011;11828;51.508;18.118;2022-10-31T16:42:55;312.85;;;138.30;;
23310;SDS011;11828;51.508;18.118;2022-10-31T16:45:27;324.60;;;151.75;;
23310;SDS011;11828;51.508;18.118;2022-10-31T16:48:02;326.90;;;153.95;;
23310;SDS011;11828;51.508;18.118;2022-10-31T16:50:36;319.77;;;149.10;;
23310;SDS011;11828;51.508;18.118;2022-10-31T16:53:03;336.17;;;149.45;;
23310;SDS011;11828;51.508;18.118;2022-10-31T16:55:29;311.38;;;143.07;;
23310;SDS011;11828;51.508;18.118;2022-10-31T16:57:56;311.52;;;146.57;;